Time;durP1;ratioP1;P1;durP2;ratioP2;P2;SDS_P1;SDS_P2;PMS_P1;PMS_P2;Temp;Humidity;BMP_temperature;BMP_pressure;BME280_temperature;BME280_humidity;BME280_pressure;Samples;Min_cycle;Max_cycle;Signal;HPM_P1;HPM_P2
2024/01/18 00:00:51;;;;;;;21.60;17.77;;;-0.40;99.90;;;;;;5019616;28;20498;-63
2024/01/18 00:03:19;;;;;;;23.90;17.70;;;-0.40;99.90;;;;;;5016045;28;20483;-64
2024/01/18 00:05:47;;;;;;;23.90;18.97;;;-0.40;99.90;;;;;;5022630;28;20853;-64
2024/01/18 00:08:16;;;;;;;23.17;18.30;;;-0.40;99.90;;;;;;5017636;28;20478;-63
2024/01/18 00:10:45;;;;;;;22.23;18.60;;;-0.40;99.90;;;;;;5015376;28;21106;-64
2024/01/18 00:13:13;;;;;;;19.80;17.33;;;-0.40;99.90;;;;;;5026009;28;20551;-63
2024/01/18 00:15:41;;;;;;;22.67;18.60;;;-0.40;99.90;;;;;;5026560;28;20506;-63
2024/01/18 00:18:10;;;;;;;23.00;17.80;;;-0.50;99.90;;;;;;5018976;28;20724;-63
2024/01/18 00:20:38;;;;;;;25.30;18.80;;;-0.50;99.90;;;;;;5022590;28;20984;-64
2024/01/18 00:23:06;;;;;;;24.70;18.80;;;-0.50;99.90;;;;;;5021093;28;21063;-64
2024/01/18 00:25:34;;;;;;;21.30;18.43;;;-0.50;99.90;;;;;;5020293;28;20869;-63
2024/01/18 00:28:04;;;;;;;23.30;18.67;;;-0.50;99.90;;;;;;5014894;28;20463;-63
2024/01/18 00:30:32;;;;;;;22.77;18.57;;;-0.50;99.90;;;;;;5023818;28;20557;-64
2024/01/18 00:33:00;;;;;;;23.97;19.40;;;-0.50;99.90;;;;;;5020339;28;20495;-64
2024/01/18 00:35:28;;;;;;;23.87;19.30;;;-0.50;99.90;;;;;;5021645;28;21015;-64
2024/01/18 00:37:56;;;;;;;21.07;18.17;;;-0.50;99.90;;;;;;5021851;28;20498;-64
2024/01/18 00:40:24;;;;;;;24.27;18.67;;;-0.50;99.90;;;;;;5004643;28;21508;-63
2024/01/18 00:42:52;;;;;;;22.50;19.70;;;-0.50;99.90;;;;;;5015097;28;20975;-63
2024/01/18 00:45:22;;;;;;;25.53;19.07;;;-0.50;99.90;;;;;;5015314;28;20578;-63
2024/01/18 00:47:50;;;;;;;21.93;18.33;;;-0.60;99.90;;;;;;5016699;28;20964;-63
2024/01/18 00:50:18;;;;;;;23.23;19.20;;;-0.60;99.90;;;;;;5018892;28;20570;-63
2024/01/18 00:52:46;;;;;;;22.13;18.17;;;-0.60;99.90;;;;;;5019376;28;20606;-64
2024/01/18 00:55:14;;;;;;;23.40;19.63;;;-0.60;99.90;;;;;;5011598;28;20553;-64
2024/01/18 00:57:42;;;;;;;22.10;18.90;;;-0.50;99.90;;;;;;5035567;28;20567;-62
2024/01/18 01:00:11;;;;;;;22.43;19.50;;;-0.60;99.90;;;;;;5041842;28;20498;-63
2024/01/18 01:02:40;;;;;;;21.83;19.53;;;-0.60;99.90;;;;;;5024528;28;20487;-64
2024/01/18 01:05:09;;;;;;;21.47;18.40;;;-0.60;99.90;;;;;;5022930;28;20531;-63
2024/01/18 01:07:37;;;;;;;23.20;19.50;;;-0.60;99.90;;;;;;5023679;28;20499;-63
2024/01/18 01:10:06;;;;;;;25.50;19.47;;;-0.60;99.90;;;;;;5013024;28;21041;-64
2024/01/18 01:12:34;;;;;;;21.00;18.77;;;-0.60;99.90;;;;;;5022229;28;20490;-62
2024/01/18 01:15:02;;;;;;;24.53;19.20;;;-0.60;99.90;;;;;;5015432;28;20998;-64
2024/01/18 01:17:30;;;;;;;25.10;19.03;;;-0.60;99.90;;;;;;5019405;28;20537;-63
2024/01/18 01:20:00;;;;;;;20.53;17.70;;;-0.60;99.90;;;;;;5012297;28;20849;-64
2024/01/18 01:22:33;;;;;;;23.77;20.03;;;-0.60;99.90;;;;;;5021767;28;20490;-62
2024/01/18 01:25:01;;;;;;;27.93;19.33;;;-0.60;99.90;;;;;;5020133;28;20497;-63
2024/01/18 01:27:29;;;;;;;23.20;19.77;;;-0.60;99.90;;;;;;5019772;28;20471;-64
2024/01/18 01:29:57;;;;;;;23.37;19.50;;;-0.70;99.90;;;;;;5017880;28;20823;-64
2024/01/18 01:32:25;;;;;;;21.47;19.10;;;-0.60;99.90;;;;;;5015652;28;20491;-64
2024/01/18 01:34:53;;;;;;;24.80;20.00;;;-0.60;99.90;;;;;;5015430;28;20474;-64
2024/01/18 01:37:22;;;;;;;24.83;19.47;;;-0.60;99.90;;;;;;5009741;28;20463;-63
2024/01/18 01:39:50;;;;;;;23.30;18.53;;;-0.70;99.90;;;;;;5013748;28;20961;-63
2024/01/18 01:42:18;;;;;;;21.90;19.47;;;-0.70;99.90;;;;;;5019683;28;20984;-63
2024/01/18 01:44:46;;;;;;;22.63;19.97;;;-0.70;99.90;;;;;;5015287;28;21004;-63
2024/01/18 01:47:14;;;;;;;22.20;18.93;;;-0.70;99.90;;;;;;5011021;28;20752;-63
2024/01/18 01:49:42;;;;;;;24.97;19.20;;;-0.70;99.90;;;;;;5022478;28;20588;-63
2024/01/18 01:52:12;;;;;;;24.17;19.87;;;-0.70;99.90;;;;;;5019744;28;20574;-63
2024/01/18 01:54:42;;;;;;;23.30;20.13;;;-0.70;99.90;;;;;;5013887;28;20918;-64
2024/01/18 01:57:10;;;;;;;25.50;18.83;;;-0.70;99.90;;;;;;5013199;28;20475;-63
2024/01/18 01:59:38;;;;;;;24.57;19.57;;;-0.70;99.90;;;;;;5016688;28;20478;-63
2024/01/18 02:02:07;;;;;;;24.57;19.87;;;-0.70;99.90;;;;;;5005419;28;20578;-62
2024/01/18 02:04:36;;;;;;;23.00;19.97;;;-0.70;99.90;;;;;;5016424;28;20471;-64
2024/01/18 02:07:04;;;;;;;22.50;19.27;;;-0.80;99.90;;;;;;5017003;28;20499;-64
2024/01/18 02:09:32;;;;;;;24.53;20.10;;;-0.80;99.90;;;;;;5012225;28;20559;-62
2024/01/18 02:12:03;;;;;;;28.23;19.47;;;-0.80;99.90;;;;;;5015807;28;20549;-64
2024/01/18 02:14:31;;;;;;;21.07;18.53;;;-0.80;99.90;;;;;;5019102;28;20490;-64
2024/01/18 02:17:00;;;;;;;23.83;19.80;;;-0.80;99.90;;;;;;5011308;28;20481;-63
2024/01/18 02:19:28;;;;;;;27.60;20.60;;;-0.90;99.90;;;;;;5013617;28;20871;-67
2024/01/18 02:21:56;;;;;;;23.20;18.77;;;-0.80;99.90;;;;;;5018316;28;20584;-64
2024/01/18 02:24:31;;;;;;;24.97;19.97;;;-0.90;99.90;;;;;;5019595;28;20510;-64
2024/01/18 02:27:01;;;;;;;24.90;19.30;;;-0.90;99.90;;;;;;5019724;28;20474;-64
2024/01/18 02:29:29;;;;;;;23.50;20.43;;;-0.90;99.90;;;;;;5017834;28;20467;-64
2024/01/18 02:31:57;;;;;;;24.70;20.23;;;-0.90;99.90;;;;;;5007918;28;20502;-63
2024/01/18 02:34:26;;;;;;;25.73;21.97;;;-0.90;99.90;;;;;;5012912;28;20475;-64
2024/01/18 02:36:54;;;;;;;24.43;20.10;;;-0.90;99.90;;;;;;5014374;28;20892;-63
2024/01/18 02:39:23;;;;;;;23.77;19.63;;;-0.90;99.90;;;;;;5017301;28;20522;-63
2024/01/18 02:41:51;;;;;;;24.67;20.30;;;-0.90;99.90;;;;;;5015974;28;20491;-63
2024/01/18 02:44:21;;;;;;;25.00;20.03;;;-0.90;99.90;;;;;;5016514;28;20499;-63
2024/01/18 02:46:49;;;;;;;24.80;19.93;;;-1.00;99.90;;;;;;5014056;28;20518;-63
2024/01/18 02:49:17;;;;;;;29.43;19.90;;;-1.00;99.90;;;;;;5009426;28;20479;-62
2024/01/18 02:51:45;;;;;;;24.17;19.70;;;-1.10;99.90;;;;;;5014292;28;20495;-63
2024/01/18 02:54:13;;;;;;;25.30;20.20;;;-1.10;99.90;;;;;;5018818;28;20463;-63
2024/01/18 02:56:41;;;;;;;25.80;19.97;;;-1.10;99.90;;;;;;5016505;28;20919;-63
2024/01/18 02:59:09;;;;;;;27.60;21.30;;;-1.10;99.90;;;;;;5019292;28;20558;-64
2024/01/18 03:01:38;;;;;;;25.53;20.70;;;-1.10;99.90;;;;;;5020428;28;20495;-64
2024/01/18 03:04:07;;;;;;;26.60;21.90;;;-1.10;99.90;;;;;;5016362;28;20467;-64
2024/01/18 03:06:35;;;;;;;24.33;20.20;;;-1.10;99.90;;;;;;5013703;28;20514;-64
2024/01/18 03:09:03;;;;;;;22.60;18.90;;;-1.10;99.90;;;;;;5019380;28;20467;-63
2024/01/18 03:11:31;;;;;;;22.03;19.50;;;-1.10;99.90;;;;;;5017713;28;21472;-63
2024/01/18 03:14:00;;;;;;;23.47;19.53;;;-1.20;99.90;;;;;;5035917;28;20459;-62
2024/01/18 03:16:29;;;;;;;25.70;20.30;;;-1.20;99.90;;;;;;5033463;28;20554;-63
2024/01/18 03:18:58;;;;;;;25.70;19.50;;;-1.20;99.90;;;;;;5023081;28;20599;-63
2024/01/18 03:21:26;;;;;;;24.03;19.20;;;-1.20;99.90;;;;;;5030140;28;20482;-63
2024/01/18 03:23:54;;;;;;;21.70;18.60;;;-1.20;99.90;;;;;;5023207;28;20540;-63
2024/01/18 03:26:22;;;;;;;25.23;20.13;;;-1.30;99.90;;;;;;5027418;28;20547;-62
2024/01/18 03:28:50;;;;;;;25.33;20.23;;;-1.30;99.90;;;;;;5020314;28;20494;-64
2024/01/18 03:31:18;;;;;;;24.17;18.97;;;-1.30;99.90;;;;;;5013673;28;20506;-64
2024/01/18 03:33:46;;;;;;;23.87;20.67;;;-1.30;99.90;;;;;;5018814;28;20503;-63
2024/01/18 03:36:16;;;;;;;25.57;19.20;;;-1.40;99.90;;;;;;5006042;28;20518;-63
2024/01/18 03:38:44;;;;;;;24.47;19.57;;;-1.40;99.90;;;;;;5017682;28;20521;-65
2024/01/18 03:41:15;;;;;;;22.63;19.50;;;-1.40;99.90;;;;;;5014662;28;20883;-63
2024/01/18 03:43:43;;;;;;;22.67;18.83;;;-1.50;99.90;;;;;;5015473;28;20482;-66
2024/01/18 03:46:14;;;;;;;23.23;19.43;;;-1.50;99.90;;;;;;5007895;28;20489;-62
2024/01/18 03:48:42;;;;;;;24.63;20.10;;;-1.50;99.90;;;;;;5016052;28;20495;-63
2024/01/18 03:51:10;;;;;;;24.00;19.00;;;-1.50;99.90;;;;;;5010505;28;20502;-63
2024/01/18 03:53:43;;;;;;;27.57;20.17;;;-1.50;99.90;;;;;;5015373;28;20562;-63
2024/01/18 03:56:12;;;;;;;28.23;20.40;;;-1.50;99.90;;;;;;5016708;28;21322;-63
2024/01/18 03:58:41;;;;;;;24.00;19.33;;;-1.50;99.90;;;;;;5013837;28;20491;-64
2024/01/18 04:01:09;;;;;;;26.17;19.20;;;-1.60;99.90;;;;;;5017070;28;20571;-63
2024/01/18 04:03:37;;;;;;;22.97;19.10;;;-1.60;99.90;;;;;;5016596;28;21544;-63
2024/01/18 04:06:05;;;;;;;22.07;18.73;;;-1.60;99.90;;;;;;5013591;28;20518;-63
2024/01/18 04:08:34;;;;;;;22.70;19.13;;;-1.60;99.90;;;;;;5018105;28;20541;-63
2024/01/18 04:11:03;;;;;;;22.10;17.83;;;-1.70;99.90;;;;;;5018681;28;21004;-63
2024/01/18 04:13:32;;;;;;;23.53;18.90;;;-1.60;99.90;;;;;;5021324;28;20566;-63
2024/01/18 04:16:00;;;;;;;24.43;19.97;;;-1.60;99.90;;;;;;5019178;28;20912;-62
2024/01/18 04:18:28;;;;;;;24.27;18.90;;;-1.60;99.90;;;;;;5021722;28;20463;-62
2024/01/18 04:20:56;;;;;;;26.83;19.10;;;-1.60;99.90;;;;;;5021028;28;20565;-63
2024/01/18 04:23:24;;;;;;;26.13;20.07;;;-1.60;99.90;;;;;;5017036;28;20952;-63
2024/01/18 04:25:53;;;;;;;23.67;19.83;;;-1.60;99.90;;;;;;5017077;28;20471;-63
2024/01/18 04:28:23;;;;;;;23.10;20.10;;;-1.60;99.90;;;;;;5011081;28;21218;-63
2024/01/18 04:30:51;;;;;;;23.40;19.60;;;-1.60;99.90;;;;;;5020232;28;20578;-63
2024/01/18 04:33:19;;;;;;;22.87;19.40;;;-1.60;99.90;;;;;;5019296;28;20549;-63
2024/01/18 04:35:47;;;;;;;26.97;18.80;;;-1.70;99.90;;;;;;5016167;28;20471;-63
2024/01/18 04:38:15;;;;;;;25.63;19.63;;;-1.70;99.90;;;;;;5018678;28;21055;-63
2024/01/18 04:40:43;;;;;;;23.67;18.60;;;-1.70;99.90;;;;;;5019061;28;20570;-62
2024/01/18 04:43:11;;;;;;;22.63;19.97;;;-1.70;99.90;;;;;;5015567;28;20483;-61
2024/01/18 04:45:41;;;;;;;24.73;18.10;;;-1.70;99.90;;;;;;5018452;28;20606;-63
2024/01/18 04:48:09;;;;;;;24.33;19.40;;;-1.70;99.90;;;;;;5015962;28;20600;-63
2024/01/18 04:50:37;;;;;;;27.00;19.87;;;-1.70;99.90;;;;;;5018397;28;21061;-63
2024/01/18 04:53:05;;;;;;;24.83;19.10;;;-1.70;99.90;;;;;;5018694;28;20484;-63
2024/01/18 04:55:33;;;;;;;26.80;20.20;;;-1.70;99.90;;;;;;5018882;28;20486;-63
2024/01/18 04:58:01;;;;;;;26.30;19.43;;;-1.80;99.90;;;;;;5016869;28;20469;-62
2024/01/18 05:00:29;;;;;;;24.53;19.30;;;-1.80;99.90;;;;;;5016352;28;20479;-63
2024/01/18 05:02:59;;;;;;;23.30;18.60;;;-1.80;99.90;;;;;;5016580;28;20851;-62
2024/01/18 05:05:27;;;;;;;22.43;18.63;;;-1.80;99.90;;;;;;5020260;28;20462;-63
2024/01/18 05:07:56;;;;;;;28.77;19.90;;;-1.80;99.90;;;;;;5017567;28;21890;-63
2024/01/18 05:10:24;;;;;;;22.33;18.47;;;-1.80;99.90;;;;;;5015567;28;20586;-65
2024/01/18 05:12:53;;;;;;;26.17;19.30;;;-1.90;99.90;;;;;;5014737;28;20585;-63
2024/01/18 05:15:23;;;;;;;25.77;20.00;;;-1.90;99.90;;;;;;5016947;28;20558;-66
2024/01/18 05:17:51;;;;;;;22.93;18.10;;;-1.90;99.90;;;;;;5015488;28;20976;-63
2024/01/18 05:20:20;;;;;;;24.83;19.07;;;-1.90;99.90;;;;;;5016779;28;20503;-63
2024/01/18 05:22:48;;;;;;;21.40;18.03;;;-1.90;99.90;;;;;;5020012;28;20503;-63
2024/01/18 05:25:16;;;;;;;25.30;18.73;;;-1.90;99.90;;;;;;5021396;28;20477;-63
2024/01/18 05:27:44;;;;;;;24.00;19.50;;;-2.00;99.90;;;;;;5036329;28;20571;-61
2024/01/18 05:30:14;;;;;;;23.10;18.87;;;-2.00;99.90;;;;;;5037664;28;20689;-62
2024/01/18 05:32:42;;;;;;;22.20;19.20;;;-2.00;99.90;;;;;;5021751;28;20494;-63
2024/01/18 05:35:10;;;;;;;24.43;19.50;;;-2.00;99.90;;;;;;5015062;28;20471;-63
2024/01/18 05:37:39;;;;;;;23.23;19.77;;;-2.00;99.90;;;;;;5015154;28;20467;-63
2024/01/18 05:40:08;;;;;;;26.77;19.80;;;-2.00;99.90;;;;;;5009807;28;20468;-63
2024/01/18 05:42:36;;;;;;;23.67;18.70;;;-2.00;99.90;;;;;;5011870;28;20507;-62
2024/01/18 05:45:05;;;;;;;22.53;18.63;;;-2.00;99.90;;;;;;5013739;28;20466;-61
2024/01/18 05:47:33;;;;;;;23.63;18.13;;;-2.00;99.90;;;;;;5017510;28;20552;-62
2024/01/18 05:50:02;;;;;;;24.70;18.73;;;-2.00;99.90;;;;;;5010849;28;20891;-62
2024/01/18 05:52:30;;;;;;;24.50;18.53;;;-2.10;99.90;;;;;;5012449;28;20522;-63
2024/01/18 05:55:00;;;;;;;24.87;20.27;;;-2.10;99.90;;;;;;5016278;28;20529;-61
2024/01/18 05:57:27;;;;;;;24.50;17.90;;;-2.10;99.90;;;;;;5012279;28;21023;-62
2024/01/18 05:59:56;;;;;;;24.20;18.80;;;-2.10;99.90;;;;;;5004040;28;20477;-63
2024/01/18 06:02:24;;;;;;;26.70;19.30;;;-2.10;99.90;;;;;;5008298;28;20494;-63
2024/01/18 06:04:52;;;;;;;23.30;18.33;;;-2.10;99.90;;;;;;5016644;28;20560;-63
2024/01/18 06:07:20;;;;;;;23.33;18.80;;;-2.10;99.90;;;;;;5011613;28;20514;-63
2024/01/18 06:09:48;;;;;;;23.50;18.73;;;-2.10;99.90;;;;;;5009800;28;20563;-63
2024/01/18 06:12:17;;;;;;;24.43;18.07;;;-2.10;99.90;;;;;;5012850;28;20590;-63
2024/01/18 06:14:45;;;;;;;26.67;18.50;;;-2.20;99.90;;;;;;5015275;28;21046;-63
2024/01/18 06:17:13;;;;;;;21.03;17.13;;;-2.20;99.90;;;;;;5014558;28;20653;-63
2024/01/18 06:19:41;;;;;;;23.53;18.63;;;-2.20;99.90;;;;;;5017607;28;20459;-63
2024/01/18 06:22:10;;;;;;;23.00;18.13;;;-2.20;99.90;;;;;;5010711;28;20685;-64
2024/01/18 06:24:38;;;;;;;24.23;19.27;;;-2.20;99.90;;;;;;5016024;28;20561;-64
2024/01/18 06:27:06;;;;;;;23.00;18.90;;;-2.20;99.90;;;;;;5017884;28;20543;-64
2024/01/18 06:29:36;;;;;;;23.13;18.30;;;-2.20;99.90;;;;;;5008484;28;20475;-64
2024/01/18 06:32:05;;;;;;;21.03;17.50;;;-2.30;99.90;;;;;;5014258;28;20870;-63
2024/01/18 06:34:34;;;;;;;20.83;16.50;;;-2.30;99.90;;;;;;5011198;28;20467;-63
2024/01/18 06:37:02;;;;;;;22.80;19.10;;;-2.20;99.90;;;;;;5011599;28;20471;-64
2024/01/18 06:39:30;;;;;;;22.13;19.27;;;-2.10;99.90;;;;;;5011136;28;20539;-63
2024/01/18 06:41:59;;;;;;;25.10;19.57;;;-2.10;99.90;;;;;;5008814;28;20507;-63
2024/01/18 06:44:27;;;;;;;25.33;18.63;;;-2.10;99.90;;;;;;5009543;28;20476;-64
2024/01/18 06:46:58;;;;;;;24.80;19.40;;;-2.10;99.90;;;;;;5008376;28;20463;-62
2024/01/18 06:49:26;;;;;;;23.23;19.47;;;-2.20;99.90;;;;;;5006729;28;20479;-64
2024/01/18 06:51:54;;;;;;;25.03;19.03;;;-2.20;99.90;;;;;;5007162;28;20601;-64
2024/01/18 06:54:22;;;;;;;22.80;18.47;;;-2.20;99.90;;;;;;5008522;28;20468;-62
2024/01/18 06:56:50;;;;;;;24.03;19.07;;;-2.30;99.90;;;;;;5002568;28;20479;-63
2024/01/18 06:59:18;;;;;;;23.07;19.23;;;-2.30;99.90;;;;;;5009607;28;20605;-64
2024/01/18 07:01:46;;;;;;;23.13;18.27;;;-2.30;99.90;;;;;;5009237;28;20620;-64
2024/01/18 07:04:16;;;;;;;22.63;18.53;;;-2.40;99.90;;;;;;5014441;28;20467;-64
2024/01/18 07:06:44;;;;;;;27.00;20.57;;;-2.40;99.90;;;;;;5018599;28;20468;-63
2024/01/18 07:09:12;;;;;;;25.80;18.13;;;-2.40;99.90;;;;;;5013663;28;20498;-64
2024/01/18 07:11:40;;;;;;;26.37;19.73;;;-2.40;99.90;;;;;;5013640;28;20491;-63
2024/01/18 07:14:08;;;;;;;22.87;19.40;;;-2.40;99.90;;;;;;5016123;28;20478;-63
2024/01/18 07:16:36;;;;;;;23.27;18.07;;;-2.40;99.90;;;;;;5014001;28;20943;-64
2024/01/18 07:19:04;;;;;;;23.57;19.00;;;-2.40;99.90;;;;;;5015702;28;20589;-63
2024/01/18 07:21:34;;;;;;;25.50;19.23;;;-2.40;99.90;;;;;;5020228;28;20483;-63
2024/01/18 07:24:02;;;;;;;24.63;19.67;;;-2.40;99.90;;;;;;5019214;28;21046;-63
2024/01/18 07:26:30;;;;;;;26.33;19.30;;;-2.40;99.90;;;;;;5019366;28;20498;-63
2024/01/18 07:28:58;;;;;;;26.53;19.80;;;-2.40;99.90;;;;;;5019314;28;20501;-64
2024/01/18 07:31:26;;;;;;;25.77;21.20;;;-2.40;99.90;;;;;;5016508;28;20874;-63
2024/01/18 07:33:54;;;;;;;25.27;19.20;;;-2.40;99.90;;;;;;5019675;28;20570;-63
2024/01/18 07:36:22;;;;;;;24.50;19.50;;;-2.40;99.90;;;;;;5011465;28;20610;-64
2024/01/18 07:38:51;;;;;;;26.13;19.90;;;-2.40;99.90;;;;;;5018534;28;20481;-64
2024/01/18 07:41:19;;;;;;;24.27;19.77;;;-2.40;99.90;;;;;;5028530;28;20506;-63
2024/01/18 07:43:47;;;;;;;24.83;19.80;;;-2.40;99.90;;;;;;5043698;28;20470;-61
2024/01/18 07:46:15;;;;;;;25.40;20.00;;;-2.40;99.90;;;;;;5034024;28;20617;-63
2024/01/18 07:48:43;;;;;;;26.47;19.50;;;-2.40;99.90;;;;;;5029280;28;20586;-63
2024/01/18 07:51:11;;;;;;;24.97;19.70;;;-2.50;99.90;;;;;;5016508;28;20487;-64
2024/01/18 07:53:41;;;;;;;22.00;18.30;;;-2.40;99.90;;;;;;5019965;28;20560;-64
2024/01/18 07:56:11;;;;;;;26.00;19.73;;;-2.40;99.90;;;;;;5017465;28;20496;-63
2024/01/18 07:58:40;;;;;;;25.17;19.30;;;-2.40;99.90;;;;;;5023122;28;20575;-63
2024/01/18 08:01:08;;;;;;;22.93;19.50;;;-2.30;99.90;;;;;;5017654;28;20577;-63
2024/01/18 08:03:36;;;;;;;25.77;20.00;;;-2.30;99.90;;;;;;5020924;28;20475;-64
2024/01/18 08:06:06;;;;;;;26.40;19.20;;;-2.30;99.90;;;;;;5022155;28;20565;-63
2024/01/18 08:08:34;;;;;;;27.73;20.77;;;-2.30;99.90;;;;;;5016638;28;20586;-64
2024/01/18 08:11:02;;;;;;;22.90;18.17;;;-2.30;99.90;;;;;;5018632;28;20626;-63
2024/01/18 08:13:32;;;;;;;25.27;19.80;;;-2.20;99.90;;;;;;5019491;28;21062;-64
2024/01/18 08:16:01;;;;;;;23.93;19.47;;;-2.20;99.90;;;;;;5016902;28;20490;-63
2024/01/18 08:18:29;;;;;;;26.40;19.50;;;-2.20;99.90;;;;;;5020442;28;20550;-63
2024/01/18 08:20:58;;;;;;;25.70;20.27;;;-2.10;99.90;;;;;;5019352;28;20496;-62
2024/01/18 08:23:26;;;;;;;29.83;20.90;;;-2.10;99.90;;;;;;5020375;28;20475;-62
2024/01/18 08:25:54;;;;;;;29.20;20.37;;;-2.10;99.90;;;;;;5018537;28;20507;-63
2024/01/18 08:28:23;;;;;;;23.27;19.37;;;-2.00;99.90;;;;;;5015870;28;20584;-64
2024/01/18 08:30:52;;;;;;;29.20;20.73;;;-2.00;99.90;;;;;;5016739;28;20519;-63
2024/01/18 08:33:21;;;;;;;29.23;20.47;;;-2.00;99.90;;;;;;5015489;28;20479;-63
2024/01/18 08:35:49;;;;;;;23.50;19.70;;;-2.00;99.90;;;;;;5019189;28;20473;-62
2024/01/18 08:38:17;;;;;;;27.93;20.20;;;-1.90;99.90;;;;;;5015200;28;20567;-62
2024/01/18 08:40:45;;;;;;;23.43;18.70;;;-1.90;99.90;;;;;;5018902;28;20673;-62
2024/01/18 08:43:13;;;;;;;22.90;18.70;;;-1.90;99.90;;;;;;5018454;28;20529;-63
2024/01/18 08:45:41;;;;;;;24.70;18.63;;;-1.80;99.90;;;;;;5018708;28;20479;-62
2024/01/18 08:48:11;;;;;;;24.90;18.23;;;-1.80;99.90;;;;;;5017019;28;20486;-62
2024/01/18 08:50:39;;;;;;;25.63;18.43;;;-1.70;99.90;;;;;;5020548;28;20487;-62
2024/01/18 08:53:08;;;;;;;21.67;17.93;;;-1.70;99.90;;;;;;5014853;28;20752;-63
2024/01/18 08:55:37;;;;;;;24.60;18.10;;;-1.60;99.90;;;;;;5013036;28;20522;-63
2024/01/18 08:58:07;;;;;;;23.43;18.10;;;-1.60;99.90;;;;;;5017157;28;20949;-63
2024/01/18 09:00:35;;;;;;;23.07;18.30;;;-1.60;99.90;;;;;;5019039;28;20494;-63
2024/01/18 09:03:04;;;;;;;19.87;16.77;;;-1.50;99.90;;;;;;5019556;28;20495;-63
2024/01/18 09:05:33;;;;;;;26.47;18.27;;;-1.50;99.90;;;;;;5017263;28;22349;-63
2024/01/18 09:08:01;;;;;;;23.80;18.17;;;-1.50;99.90;;;;;;5019323;28;20477;-62
2024/01/18 09:10:33;;;;;;;22.73;18.20;;;-1.40;99.90;;;;;;5017053;28;20545;-63
2024/01/18 09:13:01;;;;;;;21.97;18.30;;;-1.40;99.90;;;;;;5017988;28;20566;-62
2024/01/18 09:15:29;;;;;;;20.90;17.00;;;-1.30;99.90;;;;;;5018821;28;20701;-63
2024/01/18 09:17:57;;;;;;;24.73;18.03;;;-1.30;99.90;;;;;;5019459;28;20471;-62
2024/01/18 09:20:28;;;;;;;23.57;17.60;;;-1.30;99.90;;;;;;5013906;28;20482;-66
2024/01/18 09:22:57;;;;;;;26.63;18.03;;;-1.30;99.90;;;;;;5012003;28;20490;-63
2024/01/18 09:25:39;;;;;;;23.70;16.77;;;-1.30;99.90;;;;;;5009075;28;20479;-62
2024/01/18 09:28:09;;;;;;;23.13;17.03;;;-1.30;99.90;;;;;;5009194;28;20734;-62
2024/01/18 09:31:32;;;;;;;19.20;16.97;;;-1.30;99.90;;;;;;5014167;28;20491;-63
2024/01/18 09:34:09;;;;;;;21.17;16.33;;;-1.20;99.90;;;;;;5009727;28;20943;-63
2024/01/18 09:36:38;;;;;;;19.40;16.43;;;-1.20;99.90;;;;;;5016646;28;20579;-63
2024/01/18 09:39:15;;;;;;;19.70;16.10;;;-1.10;99.90;;;;;;5016810;28;20482;-63
2024/01/18 09:41:44;;;;;;;21.47;16.70;;;-1.10;99.90;;;;;;5014138;28;20552;-63
2024/01/18 09:44:14;;;;;;;22.63;16.00;;;-1.10;99.90;;;;;;5011997;28;20498;-63
2024/01/18 09:46:42;;;;;;;19.93;17.33;;;-1.00;99.90;;;;;;5020883;28;20495;-63
2024/01/18 09:49:10;;;;;;;19.57;15.53;;;-1.00;99.90;;;;;;5017963;28;20503;-63
2024/01/18 09:51:39;;;;;;;19.20;16.07;;;-0.90;99.90;;;;;;5022450;28;20515;-63
2024/01/18 09:54:08;;;;;;;27.07;15.97;;;-0.90;99.90;;;;;;5021859;28;20482;-64
2024/01/18 09:56:41;;;;;;;19.70;15.43;;;-0.80;99.90;;;;;;5033465;28;20461;-63
2024/01/18 09:59:10;;;;;;;17.93;16.07;;;-0.80;99.90;;;;;;5036583;28;20527;-62
2024/01/18 10:01:38;;;;;;;18.60;14.33;;;-0.80;99.90;;;;;;5021300;28;20495;-63
2024/01/18 10:04:08;;;;;;;19.43;15.57;;;-0.70;99.90;;;;;;5016746;28;20473;-63
2024/01/18 10:06:38;;;;;;;17.67;15.10;;;-0.70;99.90;;;;;;5020462;28;20566;-63
2024/01/18 10:09:10;;;;;;;19.87;14.47;;;-0.60;99.90;;;;;;5018280;28;20980;-62
2024/01/18 10:11:38;;;;;;;19.27;14.50;;;-0.50;99.90;;;;;;5037814;28;20493;-63
2024/01/18 10:14:08;;;;;;;17.50;14.70;;;-0.50;99.90;;;;;;5037054;28;20467;-61
2024/01/18 10:16:38;;;;;;;17.27;13.53;;;-0.40;99.90;;;;;;5036761;28;20494;-63
2024/01/18 10:19:14;;;;;;;16.40;13.53;;;-0.40;99.90;;;;;;5027248;28;20943;-62
2024/01/18 10:21:43;;;;;;;17.67;14.27;;;-0.30;99.90;;;;;;5036775;28;20482;-62
2024/01/18 10:24:14;;;;;;;19.70;14.20;;;-0.20;99.90;;;;;;5034385;28;20562;-62
2024/01/18 10:26:43;;;;;;;17.20;13.13;;;-0.20;99.90;;;;;;5013266;28;20645;-64
2024/01/18 10:29:11;;;;;;;15.53;13.43;;;-0.10;99.90;;;;;;5013482;28;20869;-63
2024/01/18 10:31:41;;;;;;;17.47;12.43;;;0.00;99.90;;;;;;5014290;28;20491;-63
2024/01/18 10:34:10;;;;;;;15.47;12.23;;;0.00;99.90;;;;;;5016071;28;20502;-62
2024/01/18 10:36:39;;;;;;;14.60;12.40;;;0.10;99.90;;;;;;5017006;28;20467;-64
2024/01/18 10:39:17;;;;;;;16.53;12.50;;;0.10;99.90;;;;;;5012793;28;20864;-64
2024/01/18 10:41:45;;;;;;;14.63;11.73;;;0.20;99.90;;;;;;5015715;28;20490;-64
2024/01/18 10:44:14;;;;;;;13.47;11.60;;;0.30;99.90;;;;;;5014995;28;20490;-63
2024/01/18 10:46:43;;;;;;;13.10;11.33;;;0.30;99.90;;;;;;5015090;28;21003;-63
2024/01/18 10:49:11;;;;;;;11.10;9.60;;;0.40;99.90;;;;;;5013487;28;20471;-63
2024/01/18 10:51:41;;;;;;;12.10;10.10;;;0.50;99.90;;;;;;5013696;28;21035;-63
2024/01/18 10:54:10;;;;;;;12.43;10.30;;;0.70;99.90;;;;;;5018777;28;20983;-62
2024/01/18 10:56:59;;;;;;;15.67;11.40;;;0.80;99.90;;;;;;5022429;28;21093;-63
2024/01/18 10:59:29;;;;;;;13.90;9.90;;;0.90;99.90;;;;;;5018640;28;20559;-62
2024/01/18 11:01:59;;;;;;;10.23;9.23;;;0.90;99.90;;;;;;5020191;28;20498;-63
2024/01/18 11:04:27;;;;;;;9.93;8.77;;;1.00;99.90;;;;;;5020046;28;20518;-61
2024/01/18 11:06:57;;;;;;;10.13;8.00;;;1.00;99.90;;;;;;5024216;28;20473;-63
2024/01/18 11:09:27;;;;;;;11.97;8.77;;;1.10;99.90;;;;;;5020258;28;20481;-63
2024/01/18 11:11:57;;;;;;;9.90;8.33;;;1.20;99.90;;;;;;5024460;28;21008;-63
2024/01/18 11:14:28;;;;;;;9.20;7.53;;;1.30;99.90;;;;;;5014067;28;20506;-62
2024/01/18 11:17:00;;;;;;;10.13;8.70;;;1.40;99.90;;;;;;5017572;28;20525;-64
2024/01/18 11:19:41;;;;;;;9.83;7.80;;;1.50;99.90;;;;;;5019996;28;20482;-62
2024/01/18 11:22:11;;;;;;;8.80;7.93;;;1.60;99.90;;;;;;5023139;28;20541;-63
2024/01/18 11:24:39;;;;;;;8.60;7.30;;;1.80;99.90;;;;;;5023759;28;20945;-64
2024/01/18 11:27:19;;;;;;;8.90;7.00;;;2.00;99.90;;;;;;5023520;28;20506;-64
2024/01/18 11:29:49;;;;;;;7.93;7.20;;;2.00;99.90;;;;;;5021261;28;20487;-63
2024/01/18 11:32:19;;;;;;;7.77;6.07;;;2.00;99.90;;;;;;5020342;28;20999;-63
2024/01/18 11:34:49;;;;;;;8.20;6.30;;;2.00;99.90;;;;;;5021887;28;20911;-64
2024/01/18 11:37:18;;;;;;;8.80;6.23;;;2.10;99.90;;;;;;5022786;28;20501;-64
2024/01/18 11:39:58;;;;;;;7.10;6.30;;;2.00;99.90;;;;;;5025161;28;20567;-62
2024/01/18 11:42:27;;;;;;;7.10;5.60;;;2.10;99.90;;;;;;5024347;28;20503;-63
2024/01/18 11:44:58;;;;;;;6.20;5.50;;;2.10;99.90;;;;;;5019294;28;20465;-62
2024/01/18 11:47:29;;;;;;;5.60;5.00;;;2.10;99.90;;;;;;5018772;28;20467;-62
2024/01/18 11:49:57;;;;;;;6.40;5.80;;;2.00;99.90;;;;;;5021334;28;20491;-63
2024/01/18 11:52:27;;;;;;;6.60;5.20;;;2.10;99.90;;;;;;5021351;28;20491;-62
2024/01/18 11:54:58;;;;;;;6.20;5.60;;;2.00;99.90;;;;;;5021861;28;20463;-63
2024/01/18 11:57:26;;;;;;;6.50;5.20;;;2.00;99.90;;;;;;5027431;28;20482;-63
2024/01/18 11:59:56;;;;;;;6.43;5.50;;;2.00;99.90;;;;;;5021833;28;20960;-64
2024/01/18 12:02:25;;;;;;;6.07;4.90;;;2.10;99.90;;;;;;5018717;28;20495;-64
2024/01/18 12:04:53;;;;;;;4.93;4.43;;;2.20;99.90;;;;;;5025204;28;20467;-63
2024/01/18 12:07:21;;;;;;;4.90;4.40;;;2.40;99.90;;;;;;5017625;28;20475;-63
2024/01/18 12:09:50;;;;;;;5.50;4.10;;;2.60;99.90;;;;;;5034478;28;20488;-63
2024/01/18 12:12:19;;;;;;;5.60;4.40;;;2.70;99.90;;;;;;5042476;28;20479;-62
2024/01/18 12:14:48;;;;;;;7.20;4.70;;;2.80;99.90;;;;;;5021272;28;20477;-63
2024/01/18 12:17:18;;;;;;;6.57;4.67;;;2.90;99.90;;;;;;5023861;28;20467;-63
2024/01/18 12:19:47;;;;;;;5.40;4.43;;;2.90;99.90;;;;;;5022842;28;20859;-64
2024/01/18 12:22:17;;;;;;;5.10;4.30;;;2.90;99.90;;;;;;5021134;28;20574;-63
2024/01/18 12:24:48;;;;;;;5.33;4.47;;;2.80;99.90;;;;;;5023961;28;20464;-64
2024/01/18 12:27:17;;;;;;;5.20;4.70;;;2.80;99.90;;;;;;5012714;28;20502;-63
2024/01/18 12:29:46;;;;;;;5.10;4.60;;;2.60;99.90;;;;;;5000682;28;21611;-63
2024/01/18 12:32:18;;;;;;;6.50;5.10;;;2.60;99.90;;;;;;5015360;28;20625;-63
2024/01/18 12:34:46;;;;;;;4.77;4.07;;;2.60;99.90;;;;;;5023725;28;20962;-64
2024/01/18 12:37:15;;;;;;;4.80;4.30;;;2.50;99.90;;;;;;5019122;28;20567;-63
2024/01/18 12:39:43;;;;;;;6.20;4.10;;;2.50;99.90;;;;;;5023089;28;20475;-63